Time;durP1;ratioP1;P1;durP2;ratioP2;P2;SDS_P1;SDS_P2;PMS_P1;PMS_P2;Temp;Humidity;BMP_temperature;BMP_pressure;BME280_temperature;BME280_humidity;BME280_pressure;Samples;Min_cycle;Max_cycle;Signal;HPM_P1;HPM_P2
2022/04/09 00:01:07;;;;;;;9.35;5.57;;;;;;;;;;5032395;28;20463;-72
2022/04/09 00:03:32;;;;;;;9.27;5.80;;;;;;;;;;5033229;28;20025;-72
2022/04/09 00:05:58;;;;;;;10.85;6.75;;;;;;;;;;5032832;28;20069;-72
2022/04/09 00:08:23;;;;;;;9.63;6.25;;;;;;;;;;5032936;28;20075;-72
2022/04/09 00:10:48;;;;;;;9.75;5.88;;;;;;;;;;5033354;28;20025;-74
2022/04/09 00:13:14;;;;;;;14.52;7.32;;;;;;;;;;5032945;28;20498;-72
2022/04/09 00:15:39;;;;;;;13.45;6.90;;;;;;;;;;5032835;28;20025;-75
2022/04/09 00:18:06;;;;;;;10.55;6.32;;;;;;;;;;5033008;28;20036;-73
2022/04/09 00:20:31;;;;;;;10.32;6.72;;;;;;;;;;5033148;28;20433;-74
2022/04/09 00:22:57;;;;;;;12.50;7.03;;;;;;;;;;5033296;28;20322;-72
2022/04/09 00:25:24;;;;;;;10.38;6.97;;;;;;;;;;5032738;28;20037;-74
2022/04/09 00:27:50;;;;;;;13.40;7.05;;;;;;;;;;5032835;28;20021;-72
2022/04/09 00:30:16;;;;;;;12.20;7.22;;;;;;;;;;5032601;28;20566;-72
2022/04/09 00:32:42;;;;;;;11.35;6.88;;;;;;;;;;5032754;28;20483;-72
2022/04/09 00:35:07;;;;;;;12.68;7.47;;;;;;;;;;5032612;28;20084;-72
2022/04/09 00:37:46;;;;;;;13.35;7.93;;;;;;;;;;5032704;28;20029;-72
2022/04/09 00:40:13;;;;;;;14.38;7.57;;;;;;;;;;5032711;28;20490;-72
2022/04/09 00:42:42;;;;;;;14.40;8.43;;;;;;;;;;5032725;28;20033;-73
2022/04/09 00:45:09;;;;;;;15.35;8.13;;;;;;;;;;5032856;28;20112;-72
2022/04/09 00:47:35;;;;;;;13.25;8.45;;;;;;;;;;5032501;28;20550;-72
2022/04/09 00:50:02;;;;;;;13.57;7.47;;;;;;;;;;5032603;28;20052;-72
2022/04/09 00:52:28;;;;;;;11.85;7.30;;;;;;;;;;5032709;28;20057;-72
2022/04/09 00:54:54;;;;;;;11.70;6.95;;;;;;;;;;5032775;28;20454;-72
2022/04/09 00:57:20;;;;;;;10.68;6.93;;;;;;;;;;5033186;28;20068;-72
2022/04/09 00:59:49;;;;;;;14.52;7.75;;;;;;;;;;5032535;28;20048;-72
2022/04/09 01:02:14;;;;;;;13.15;7.68;;;;;;;;;;5032346;28;20037;-72
2022/04/09 01:04:43;;;;;;;16.27;7.63;;;;;;;;;;5032508;28;20076;-72
2022/04/09 01:07:09;;;;;;;11.73;7.78;;;;;;;;;;5032578;28;20104;-72
2022/04/09 01:09:35;;;;;;;11.25;7.30;;;;;;;;;;5032539;28;20061;-72
2022/04/09 01:12:02;;;;;;;12.73;7.47;;;;;;;;;;5032214;28;20061;-72
2022/04/09 01:14:28;;;;;;;11.35;7.63;;;;;;;;;;5032569;28;20075;-72
2022/04/09 01:16:54;;;;;;;14.48;8.23;;;;;;;;;;5032297;28;20017;-71
2022/04/09 01:19:20;;;;;;;12.70;7.68;;;;;;;;;;5031936;28;20029;-72
2022/04/09 01:21:47;;;;;;;15.55;8.20;;;;;;;;;;5031915;28;20026;-72
2022/04/09 01:24:13;;;;;;;11.95;8.15;;;;;;;;;;5032122;28;20303;-74
2022/04/09 01:26:38;;;;;;;12.80;8.48;;;;;;;;;;5031699;28;20584;-72
2022/04/09 01:29:03;;;;;;;15.32;8.38;;;;;;;;;;5031938;28;20462;-72
2022/04/09 01:31:29;;;;;;;12.95;8.35;;;;;;;;;;5031478;28;20022;-72
2022/04/09 01:33:54;;;;;;;13.25;7.88;;;;;;;;;;5031415;28;20636;-71
2022/04/09 01:36:19;;;;;;;12.50;7.85;;;;;;;;;;5031605;28;20075;-71
2022/04/09 01:38:44;;;;;;;16.13;8.32;;;;;;;;;;5031546;28;20108;-72
2022/04/09 01:41:10;;;;;;;14.98;8.43;;;;;;;;;;5030965;28;20423;-71
2022/04/09 01:43:35;;;;;;;15.02;8.73;;;;;;;;;;5031664;28;20104;-71
2022/04/09 01:46:00;;;;;;;14.80;8.95;;;;;;;;;;5031682;28;20071;-71
2022/04/09 01:48:26;;;;;;;14.88;9.88;;;;;;;;;;5030106;28;20116;-72
2022/04/09 01:50:51;;;;;;;14.27;8.95;;;;;;;;;;5031384;28;20531;-72
2022/04/09 01:53:17;;;;;;;13.35;8.98;;;;;;;;;;5030959;28;20083;-72
2022/04/09 01:55:43;;;;;;;15.73;8.27;;;;;;;;;;5031192;28;20105;-72
2022/04/09 01:58:09;;;;;;;15.73;8.45;;;;;;;;;;5031028;28;20040;-71
2022/04/09 02:00:34;;;;;;;14.55;8.10;;;;;;;;;;5031403;28;20025;-72
2022/04/09 02:02:59;;;;;;;16.38;8.35;;;;;;;;;;5031680;28;20079;-71
2022/04/09 02:05:25;;;;;;;11.98;7.45;;;;;;;;;;5031071;28;20172;-71
2022/04/09 02:07:51;;;;;;;12.25;7.68;;;;;;;;;;5030874;28;20049;-71
2022/04/09 02:10:17;;;;;;;14.02;7.65;;;;;;;;;;5030226;28;20112;-72
2022/04/09 02:12:44;;;;;;;12.15;8.00;;;;;;;;;;5030551;28;20036;-71
2022/04/09 02:15:15;;;;;;;10.70;6.95;;;;;;;;;;5030858;28;20390;-71
2022/04/09 02:17:41;;;;;;;12.73;7.95;;;;;;;;;;5030678;28;20299;-71
2022/04/09 02:20:08;;;;;;;11.35;7.35;;;;;;;;;;5030371;28;20025;-71
2022/04/09 02:22:38;;;;;;;13.02;7.38;;;;;;;;;;5029955;28;20117;-71
2022/04/09 02:25:04;;;;;;;12.18;7.82;;;;;;;;;;5030371;28;20059;-71
2022/04/09 02:27:29;;;;;;;13.30;7.45;;;;;;;;;;5030543;28;20073;-71
2022/04/09 02:29:55;;;;;;;10.63;6.78;;;;;;;;;;5030458;28;20026;-71
2022/04/09 02:32:21;;;;;;;13.15;6.75;;;;;;;;;;5030406;28;20096;-72
2022/04/09 02:34:46;;;;;;;12.20;7.63;;;;;;;;;;5030536;28;20071;-71
2022/04/09 02:37:11;;;;;;;11.82;7.70;;;;;;;;;;5029871;28;20032;-71
2022/04/09 02:39:37;;;;;;;13.25;8.20;;;;;;;;;;5030080;28;20075;-71
2022/04/09 02:42:02;;;;;;;12.20;8.52;;;;;;;;;;5030096;28;20025;-71
2022/04/09 02:44:28;;;;;;;11.32;7.53;;;;;;;;;;5029821;28;20033;-71
2022/04/09 02:46:53;;;;;;;15.38;8.13;;;;;;;;;;5029803;28;20029;-71
2022/04/09 02:49:20;;;;;;;16.20;7.95;;;;;;;;;;5030124;28;20030;-71
2022/04/09 02:51:45;;;;;;;12.30;7.57;;;;;;;;;;5030159;28;20025;-71
2022/04/09 02:54:15;;;;;;;11.55;7.80;;;;;;;;;;5030093;28;20036;-71
2022/04/09 02:56:42;;;;;;;10.98;6.78;;;;;;;;;;5030210;28;20025;-71
2022/04/09 02:59:09;;;;;;;13.88;7.25;;;;;;;;;;5030063;28;20036;-71
2022/04/09 03:01:34;;;;;;;14.02;7.13;;;;;;;;;;5029647;28;20037;-71
2022/04/09 03:03:59;;;;;;;12.63;7.30;;;;;;;;;;5029685;28;20052;-71
2022/04/09 03:06:25;;;;;;;11.65;7.05;;;;;;;;;;5029762;28;20037;-71
2022/04/09 03:08:50;;;;;;;10.38;7.00;;;;;;;;;;5029672;28;20025;-72
2022/04/09 03:11:15;;;;;;;10.13;6.97;;;;;;;;;;5030184;28;20374;-71
2022/04/09 03:13:40;;;;;;;14.98;7.25;;;;;;;;;;5029875;28;20028;-71
2022/04/09 03:16:06;;;;;;;11.05;6.82;;;;;;;;;;5029678;28;20030;-71
2022/04/09 03:18:31;;;;;;;12.20;7.63;;;;;;;;;;5029371;28;20112;-71
2022/04/09 03:20:56;;;;;;;12.10;7.30;;;;;;;;;;5029827;28;20021;-71
2022/04/09 03:23:22;;;;;;;12.80;7.13;;;;;;;;;;5029922;28;20605;-71
2022/04/09 03:25:48;;;;;;;11.10;6.80;;;;;;;;;;5029652;28;20029;-71
2022/04/09 03:28:14;;;;;;;10.75;6.60;;;;;;;;;;5029528;28;20028;-71
2022/04/09 03:30:39;;;;;;;10.25;6.68;;;;;;;;;;5030022;28;20029;-71
2022/04/09 03:33:05;;;;;;;11.27;7.40;;;;;;;;;;5029452;28;20060;-71
2022/04/09 03:35:30;;;;;;;10.82;6.43;;;;;;;;;;5031670;28;20029;-71
2022/04/09 03:37:56;;;;;;;13.07;6.45;;;;;;;;;;5033499;28;20109;-71
2022/04/09 03:40:21;;;;;;;14.25;6.60;;;;;;;;;;5033692;28;20028;-71
2022/04/09 03:42:47;;;;;;;12.70;6.78;;;;;;;;;;5033498;28;20064;-71
2022/04/09 03:45:12;;;;;;;13.27;7.32;;;;;;;;;;5033518;28;20033;-70
2022/04/09 03:47:37;;;;;;;10.25;6.63;;;;;;;;;;5033441;28;20095;-72
2022/04/09 03:50:06;;;;;;;9.00;6.38;;;;;;;;;;5033144;28;20032;-71
2022/04/09 03:52:31;;;;;;;13.23;7.20;;;;;;;;;;5013982;28;20109;-71
2022/04/09 03:54:57;;;;;;;12.40;6.57;;;;;;;;;;5012728;28;20543;-71
2022/04/09 03:57:22;;;;;;;12.07;7.18;;;;;;;;;;5013598;28;20539;-71
2022/04/09 03:59:51;;;;;;;10.07;5.47;;;;;;;;;;5015227;28;20368;-73
2022/04/09 04:02:17;;;;;;;14.65;6.55;;;;;;;;;;5033258;28;20021;-72
2022/04/09 04:04:43;;;;;;;10.73;5.68;;;;;;;;;;5033078;28;20079;-72
2022/04/09 04:07:08;;;;;;;10.55;6.18;;;;;;;;;;5032665;28;20045;-72
2022/04/09 04:09:34;;;;;;;11.70;6.53;;;;;;;;;;5032655;28;20061;-73
2022/04/09 04:11:59;;;;;;;10.20;6.60;;;;;;;;;;5033082;28;20498;-73
2022/04/09 04:14:25;;;;;;;10.57;7.30;;;;;;;;;;5033070;28;20018;-73
2022/04/09 04:16:51;;;;;;;17.27;7.05;;;;;;;;;;5033294;28;20078;-72
2022/04/09 04:19:16;;;;;;;14.50;7.13;;;;;;;;;;5032615;28;20017;-71
2022/04/09 04:21:42;;;;;;;17.15;10.65;;;;;;;;;;5032925;28;20025;-73
2022/04/09 04:24:07;;;;;;;20.13;10.10;;;;;;;;;;5032437;28;20095;-73
2022/04/09 04:26:33;;;;;;;10.98;6.85;;;;;;;;;;5031823;28;20475;-74
2022/04/09 04:28:58;;;;;;;10.80;6.50;;;;;;;;;;5032581;28;20032;-74
2022/04/09 04:31:23;;;;;;;9.93;7.20;;;;;;;;;;5032713;28;20108;-74
2022/04/09 04:33:49;;;;;;;11.27;5.80;;;;;;;;;;5032686;28;20032;-75
2022/04/09 04:36:14;;;;;;;11.60;6.07;;;;;;;;;;5031992;28;20035;-73
2022/04/09 04:38:39;;;;;;;7.45;4.95;;;;;;;;;;5031018;28;20056;-76
2022/04/09 04:41:05;;;;;;;13.07;6.63;;;;;;;;;;5032855;28;20025;-74
2022/04/09 04:43:31;;;;;;;14.10;6.68;;;;;;;;;;5032339;28;20036;-74
2022/04/09 04:45:56;;;;;;;13.63;6.22;;;;;;;;;;5032152;28;20021;-74
2022/04/09 04:48:22;;;;;;;10.65;6.10;;;;;;;;;;5032372;28;20044;-74
2022/04/09 04:50:47;;;;;;;11.85;6.32;;;;;;;;;;5032024;28;20052;-73
2022/04/09 04:53:12;;;;;;;12.63;7.35;;;;;;;;;;5032491;28;20379;-73
2022/04/09 04:55:38;;;;;;;12.30;7.03;;;;;;;;;;5031875;28;20037;-72
2022/04/09 04:58:03;;;;;;;11.93;7.18;;;;;;;;;;5032026;28;20018;-75
2022/04/09 05:00:29;;;;;;;12.98;7.13;;;;;;;;;;5030795;28;20026;-74
2022/04/09 05:02:55;;;;;;;13.52;7.03;;;;;;;;;;5032087;28;20538;-73
2022/04/09 05:05:20;;;;;;;14.18;8.00;;;;;;;;;;5032305;28;20025;-73
2022/04/09 05:07:48;;;;;;;14.02;7.13;;;;;;;;;;5031645;28;20071;-75
2022/04/09 05:10:18;;;;;;;15.07;8.02;;;;;;;;;;5031681;28;20440;-76
2022/04/09 05:12:44;;;;;;;16.45;8.90;;;;;;;;;;5032082;28;20506;-73
2022/04/09 05:15:12;;;;;;;16.75;11.52;;;;;;;;;;5031713;28;20067;-72
2022/04/09 05:17:38;;;;;;;18.38;9.10;;;;;;;;;;5031576;28;20026;-72
2022/04/09 05:20:05;;;;;;;13.85;8.07;;;;;;;;;;5031460;28;20029;-73
2022/04/09 05:22:31;;;;;;;12.30;7.80;;;;;;;;;;5031652;28;20040;-72
2022/04/09 05:24:57;;;;;;;14.98;8.20;;;;;;;;;;5031320;28;20030;-74
2022/04/09 05:27:23;;;;;;;11.63;7.88;;;;;;;;;;5031389;28;20033;-74
2022/04/09 05:29:48;;;;;;;13.18;8.00;;;;;;;;;;5031414;28;20113;-71
2022/04/09 05:32:14;;;;;;;11.65;8.20;;;;;;;;;;5031201;28;20383;-74
2022/04/09 05:34:39;;;;;;;12.05;7.70;;;;;;;;;;5031086;28;20463;-73
2022/04/09 05:37:04;;;;;;;11.60;7.60;;;;;;;;;;5031413;28;20412;-72
2022/04/09 05:39:30;;;;;;;13.10;6.82;;;;;;;;;;5031244;28;20517;-74
2022/04/09 05:41:55;;;;;;;13.30;8.20;;;;;;;;;;5031735;28;20079;-72
2022/04/09 05:44:20;;;;;;;12.45;7.45;;;;;;;;;;5031473;28;20471;-73
2022/04/09 05:46:46;;;;;;;13.55;8.38;;;;;;;;;;5031164;28;20426;-73
2022/04/09 05:49:11;;;;;;;12.75;8.15;;;;;;;;;;5030698;28;20432;-73
2022/04/09 05:51:36;;;;;;;15.25;8.05;;;;;;;;;;5030816;28;20380;-73
2022/04/09 05:54:03;;;;;;;14.35;9.38;;;;;;;;;;5031024;28;20092;-72
2022/04/09 05:56:28;;;;;;;15.90;8.20;;;;;;;;;;5030878;28;20053;-73
2022/04/09 05:58:54;;;;;;;12.90;8.10;;;;;;;;;;5030278;28;20395;-72
2022/04/09 06:01:19;;;;;;;17.42;8.68;;;;;;;;;;5030920;28;20033;-72
2022/04/09 06:03:44;;;;;;;13.63;8.18;;;;;;;;;;5030931;28;20087;-73
2022/04/09 06:06:11;;;;;;;13.07;7.53;;;;;;;;;;5030430;28;20379;-73
2022/04/09 06:08:36;;;;;;;13.30;8.07;;;;;;;;;;5030686;28;20029;-72
2022/04/09 06:11:02;;;;;;;14.35;7.85;;;;;;;;;;5030910;28;20025;-73
2022/04/09 06:13:28;;;;;;;11.98;8.05;;;;;;;;;;5030944;28;20113;-73
2022/04/09 06:15:53;;;;;;;15.32;7.63;;;;;;;;;;5029368;28;20396;-73
2022/04/09 06:18:19;;;;;;;15.55;8.38;;;;;;;;;;5029799;28;20025;-73
2022/04/09 06:20:44;;;;;;;13.35;7.68;;;;;;;;;;5022949;28;20056;-72
2022/04/09 06:23:09;;;;;;;15.82;7.85;;;;;;;;;;5028562;28;20376;-73
2022/04/09 06:25:35;;;;;;;13.55;8.48;;;;;;;;;;5036837;28;20047;-72
2022/04/09 06:28:01;;;;;;;15.15;8.20;;;;;;;;;;5041841;28;20483;-73
2022/04/09 06:30:27;;;;;;;16.95;8.82;;;;;;;;;;5028245;28;20021;-73
2022/04/09 06:32:53;;;;;;;15.52;8.40;;;;;;;;;;5029520;28;20032;-73
2022/04/09 06:35:18;;;;;;;12.25;8.43;;;;;;;;;;5027378;28;20030;-74
2022/04/09 06:37:44;;;;;;;17.90;7.78;;;;;;;;;;5031893;28;20029;-74
2022/04/09 06:40:09;;;;;;;14.68;7.35;;;;;;;;;;5029756;28;20028;-72
2022/04/09 06:42:41;;;;;;;12.27;7.55;;;;;;;;;;5030081;28;20038;-74
2022/04/09 06:45:08;;;;;;;20.98;7.97;;;;;;;;;;5030058;28;20017;-74
2022/04/09 06:47:40;;;;;;;11.32;7.13;;;;;;;;;;5029726;28;20033;-73
2022/04/09 06:50:10;;;;;;;11.50;6.40;;;;;;;;;;5029431;28;20036;-73
2022/04/09 06:52:36;;;;;;;12.63;6.10;;;;;;;;;;5029800;28;20629;-74
2022/04/09 06:55:03;;;;;;;12.68;7.05;;;;;;;;;;5029739;28;20096;-73
2022/04/09 06:57:29;;;;;;;15.10;6.75;;;;;;;;;;5029653;28;20502;-73
2022/04/09 06:59:57;;;;;;;11.95;5.53;;;;;;;;;;5028878;28;20021;-73
2022/04/09 07:02:22;;;;;;;13.52;6.10;;;;;;;;;;5028785;28;20025;-74
2022/04/09 07:04:47;;;;;;;12.15;6.07;;;;;;;;;;5029534;28;20482;-73
2022/04/09 07:07:19;;;;;;;12.20;5.55;;;;;;;;;;5029743;28;20471;-73
2022/04/09 07:09:44;;;;;;;15.20;6.30;;;;;;;;;;5034357;28;20479;-73
2022/04/09 07:12:10;;;;;;;11.43;5.13;;;;;;;;;;5034873;28;20067;-72
2022/04/09 07:14:35;;;;;;;14.05;5.93;;;;;;;;;;5033384;28;20096;-72
2022/04/09 07:17:03;;;;;;;13.18;5.70;;;;;;;;;;5047881;28;20128;-73
2022/04/09 07:19:28;;;;;;;9.05;5.20;;;;;;;;;;5024858;28;20088;-73
2022/04/09 07:21:54;;;;;;;12.18;5.30;;;;;;;;;;5022198;28;20438;-71
2022/04/09 07:24:20;;;;;;;8.43;4.85;;;;;;;;;;5035999;28;20497;-71
2022/04/09 07:26:45;;;;;;;12.00;4.63;;;;;;;;;;5036091;28;20025;-72
2022/04/09 07:29:11;;;;;;;10.90;5.53;;;;;;;;;;5035733;28;20072;-72
2022/04/09 07:31:36;;;;;;;10.80;5.03;;;;;;;;;;5025945;28;20124;-71
2022/04/09 07:34:01;;;;;;;10.95;5.38;;;;;;;;;;5035939;28;20052;-73
2022/04/09 07:36:28;;;;;;;9.43;5.68;;;;;;;;;;5035846;28;20034;-72
2022/04/09 07:38:53;;;;;;;12.27;5.38;;;;;;;;;;5035916;28;20025;-73
2022/04/09 07:41:19;;;;;;;8.43;5.65;;;;;;;;;;5035703;28;20036;-71
2022/04/09 07:43:44;;;;;;;15.13;7.22;;;;;;;;;;5035887;28;20463;-71
2022/04/09 07:46:09;;;;;;;12.05;4.95;;;;;;;;;;5042242;28;20122;-73
2022/04/09 07:48:35;;;;;;;9.70;5.00;;;;;;;;;;5042491;28;20171;-73
2022/04/09 07:51:01;;;;;;;10.95;5.45;;;;;;;;;;5035573;28;20033;-72
2022/04/09 07:53:26;;;;;;;13.80;8.18;;;;;;;;;;5034980;28;20128;-72
2022/04/09 07:55:51;;;;;;;9.10;5.25;;;;;;;;;;5035588;28;20029;-71
2022/04/09 07:58:16;;;;;;;15.10;5.38;;;;;;;;;;5034369;28;20068;-72
2022/04/09 08:00:44;;;;;;;9.75;5.00;;;;;;;;;;5036137;28;20453;-72
2022/04/09 08:03:09;;;;;;;7.75;4.32;;;;;;;;;;5036249;28;20022;-72
2022/04/09 08:05:35;;;;;;;11.00;5.57;;;;;;;;;;5036165;28;20513;-71
2022/04/09 08:08:01;;;;;;;12.68;5.97;;;;;;;;;;5035590;28;20033;-72
2022/04/09 08:10:26;;;;;;;11.52;5.50;;;;;;;;;;5035955;28;20026;-72
2022/04/09 08:12:53;;;;;;;15.63;7.65;;;;;;;;;;5035939;28;20108;-71
2022/04/09 08:15:19;;;;;;;20.52;9.10;;;;;;;;;;5036190;28;20026;-72
2022/04/09 08:17:45;;;;;;;22.67;11.25;;;;;;;;;;5035766;28;20117;-71
2022/04/09 08:20:12;;;;;;;23.92;11.65;;;;;;;;;;5034000;28;20328;-72
2022/04/09 08:22:37;;;;;;;45.00;19.25;;;;;;;;;;5032702;28;20526;-71
2022/04/09 08:25:04;;;;;;;22.48;9.98;;;;;;;;;;5032713;28;20029;-72
2022/04/09 08:27:29;;;;;;;17.98;8.30;;;;;;;;;;5035854;23;20096;-73
2022/04/09 08:29:54;;;;;;;78.07;32.50;;;;;;;;;;5013080;28;20037;-75
2022/04/09 08:32:22;;;;;;;25.63;11.48;;;;;;;;;;5013003;28;20025;-73
2022/04/09 08:34:48;;;;;;;7.32;3.20;;;;;;;;;;5012954;28;20030;-73
2022/04/09 08:37:13;;;;;;;12.90;3.83;;;;;;;;;;5013030;28;20076;-73
2022/04/09 08:39:38;;;;;;;12.25;5.63;;;;;;;;;;5012605;28;20029;-74
2022/04/09 08:42:04;;;;;;;10.80;4.70;;;;;;;;;;5012696;28;20018;-74
2022/04/09 08:44:30;;;;;;;14.27;4.00;;;;;;;;;;5013130;28;20043;-74
2022/04/09 08:46:56;;;;;;;10.25;3.80;;;;;;;;;;5012409;28;20022;-74
2022/04/09 08:49:22;;;;;;;9.07;3.63;;;;;;;;;;5017257;28;20029;-74
2022/04/09 08:51:48;;;;;;;15.98;6.70;;;;;;;;;;5029101;28;20021;-75
2022/04/09 08:54:14;;;;;;;12.05;3.40;;;;;;;;;;5028720;28;20032;-74
2022/04/09 08:56:39;;;;;;;15.10;4.57;;;;;;;;;;5018457;28;20491;-75
2022/04/09 08:59:05;;;;;;;9.15;4.10;;;;;;;;;;5009484;28;20045;-74
2022/04/09 09:01:32;;;;;;;10.57;3.47;;;;;;;;;;5025295;28;20490;-74
2022/04/09 09:03:58;;;;;;;11.43;3.20;;;;;;;;;;5024276;28;20043;-75
2022/04/09 09:06:28;;;;;;;7.03;2.63;;;;;;;;;;5028376;28;20076;-75
2022/04/09 09:08:55;;;;;;;6.70;2.30;;;;;;;;;;5023851;28;20026;-72
2022/04/09 09:11:21;;;;;;;6.97;2.50;;;;;;;;;;5007544;28;20037;-73
2022/04/09 09:13:55;;;;;;;5.32;3.00;;;;;;;;;;5027968;28;20021;-75
2022/04/09 09:16:28;;;;;;;8.45;2.65;;;;;;;;;;5014497;28;20486;-75
2022/04/09 09:19:05;;;;;;;10.40;2.42;;;;;;;;;;5008179;28;20021;-75
2022/04/09 09:21:31;;;;;;;8.52;2.60;;;;;;;;;;5018195;28;20497;-75
2022/04/09 09:24:08;;;;;;;7.05;2.65;;;;;;;;;;5029014;28;20030;-76
2022/04/09 09:26:38;;;;;;;7.38;2.00;;;;;;;;;;5028246;28;20376;-75
2022/04/09 09:29:04;;;;;;;7.93;2.60;;;;;;;;;;5028369;28;20644;-74
2022/04/09 09:31:39;;;;;;;8.13;2.45;;;;;;;;;;5010752;28;20033;-74
2022/04/09 09:34:08;;;;;;;6.38;2.20;;;;;;;;;;5007433;28;20029;-75
2022/04/09 09:36:34;;;;;;;4.80;2.50;;;;;;;;;;5008570;28;20101;-74
2022/04/09 09:39:03;;;;;;;6.43;2.35;;;;;;;;;;5007697;28;20110;-74
2022/04/09 09:41:29;;;;;;;4.65;2.10;;;;;;;;;;5007826;28;20026;-75
2022/04/09 09:44:02;;;;;;;5.78;2.22;;;;;;;;;;5008687;28;20068;-74
2022/04/09 09:46:28;;;;;;;7.38;2.15;;;;;;;;;;5007995;28;20049;-72
2022/04/09 09:48:53;;;;;;;9.02;2.30;;;;;;;;;;5019684;28;20112;-73
2022/04/09 09:51:23;;;;;;;4.93;2.30;;;;;;;;;;5008618;28;20021;-72
2022/04/09 09:53:48;;;;;;;9.13;2.20;;;;;;;;;;5023282;28;20025;-71
2022/04/09 09:56:31;;;;;;;8.50;3.20;;;;;;;;;;5027783;28;20029;-74
2022/04/09 09:58:57;;;;;;;8.50;2.70;;;;;;;;;;5027081;28;20034;-73
2022/04/09 10:01:23;;;;;;;9.10;2.35;;;;;;;;;;5028371;28;20116;-74
2022/04/09 10:03:49;;;;;;;5.95;1.92;;;;;;;;;;5027478;28;20053;-77
2022/04/09 10:06:14;;;;;;;9.65;2.28;;;;;;;;;;5027833;28;20092;-74
2022/04/09 10:08:40;;;;;;;6.10;1.90;;;;;;;;;;5029293;28;20121;-75
2022/04/09 10:11:05;;;;;;;6.93;1.90;;;;;;;;;;5030607;28;20391;-74
2022/04/09 10:13:33;;;;;;;8.18;2.03;;;;;;;;;;5030722;28;20037;-76
2022/04/09 10:15:59;;;;;;;4.63;1.80;;;;;;;;;;5030892;28;20072;-75
2022/04/09 10:18:24;;;;;;;10.20;1.90;;;;;;;;;;5030384;28;20506;-75
2022/04/09 10:21:00;;;;;;;6.55;2.10;;;;;;;;;;5030721;28;20025;-76
2022/04/09 10:23:32;;;;;;;6.18;2.42;;;;;;;;;;5030911;28;20410;-74
2022/04/09 10:25:59;;;;;;;6.18;1.60;;;;;;;;;;5030455;28;20112;-74
2022/04/09 10:28:30;;;;;;;4.70;1.70;;;;;;;;;;5030124;28;20029;-74
2022/04/09 10:30:55;;;;;;;5.88;1.60;;;;;;;;;;5023876;28;20025;-75
2022/04/09 10:33:23;;;;;;;6.15;2.00;;;;;;;;;;5026087;28;20432;-74
2022/04/09 10:35:48;;;;;;;7.43;1.83;;;;;;;;;;5027433;28;20022;-76
2022/04/09 10:38:16;;;;;;;7.72;2.95;;;;;;;;;;5027540;28;20063;-75
2022/04/09 10:40:50;;;;;;;9.82;1.85;;;;;;;;;;5026536;28;20548;-74
2022/04/09 10:43:21;;;;;;;9.70;1.80;;;;;;;;;;5011611;28;20041;-73
2022/04/09 10:46:02;;;;;;;5.07;1.67;;;;;;;;;;5020172;28;20032;-75
2022/04/09 10:48:34;;;;;;;7.75;1.83;;;;;;;;;;5026943;28;20025;-74
2022/04/09 10:51:08;;;;;;;4.05;1.80;;;;;;;;;;5029068;28;20033;-74
2022/04/09 10:53:41;;;;;;;8.07;2.00;;;;;;;;;;5030138;28;20052;-75
2022/04/09 10:56:13;;;;;;;7.55;2.30;;;;;;;;;;5030046;28;20387;-75
2022/04/09 10:59:10;;;;;;;3.38;1.52;;;;;;;;;;5029972;28;20026;-75
2022/04/09 11:01:51;;;;;;;4.97;1.35;;;;;;;;;;5030752;28;20479;-76
2022/04/09 11:04:32;;;;;;;3.47;1.00;;;;;;;;;;5030504;28;20044;-76
2022/04/09 11:07:20;;;;;;;4.07;1.15;;;;;;;;;;5030006;28;20039;-76
2022/04/09 11:09:58;;;;;;;6.15;3.10;;;;;;;;;;5029782;28;20069;-76
2022/04/09 11:12:39;;;;;;;10.45;4.72;;;;;;;;;;5007735;28;20034;-76
2022/04/09 11:15:17;;;;;;;4.68;2.35;;;;;;;;;;5010263;28;20026;-76
2022/04/09 11:17:45;;;;;;;4.85;1.33;;;;;;;;;;5010302;28;20018;-76
2022/04/09 11:20:20;;;;;;;25.50;11.25;;;;;;;;;;5009916;28;20018;-76
2022/04/09 11:22:48;;;;;;;6.72;1.17;;;;;;;;;;5010785;28;20021;-78
2022/04/09 11:25:21;;;;;;;6.25;1.20;;;;;;;;;;5010591;28;20025;-77
2022/04/09 11:27:47;;;;;;;14.07;6.50;;;;;;;;;;5010001;28;20056;-75
2022/04/09 11:30:13;;;;;;;34.22;15.77;;;;;;;;;;5010352;28;20097;-75
2022/04/09 11:32:38;;;;;;;8.90;2.70;;;;;;;;;;5010110;28;20026;-76
2022/04/09 11:35:10;;;;;;;28.90;14.77;;;;;;;;;;5008771;28;20124;-75
2022/04/09 11:37:48;;;;;;;4.22;1.80;;;;;;;;;;5010228;28;20423;-75
2022/04/09 11:40:14;;;;;;;58.30;31.05;;;;;;;;;;5010071;28;20025;-75
2022/04/09 11:42:53;;;;;;;12.00;10.60;;;;;;;;;;5010180;28;20530;-75
2022/04/09 11:45:31;;;;;;;8.25;6.65;;;;;;;;;;5010434;28;20033;-76
2022/04/09 11:47:58;;;;;;;6.60;2.30;;;;;;;;;;5009910;28;20033;-75
2022/04/09 11:50:25;;;;;;;7.38;3.10;;;;;;;;;;5009878;28;20502;-76
2022/04/09 11:52:52;;;;;;;7.13;3.05;;;;;;;;;;5009848;28;20037;-75
2022/04/09 11:55:17;;;;;;;6.35;2.90;;;;;;;;;;5010336;28;20033;-75
2022/04/09 11:57:53;;;;;;;3.83;3.17;;;;;;;;;;5013504;28;20022;-75
2022/04/09 12:00:27;;;;;;;5.65;1.15;;;;;;;;;;5013785;28;20491;-73
2022/04/09 12:02:53;;;;;;;3.80;1.70;;;;;;;;;;5013665;28;20037;-73
2022/04/09 12:05:19;;;;;;;5.72;1.40;;;;;;;;;;5013825;28;20060;-76
2022/04/09 12:07:46;;;;;;;5.00;1.60;;;;;;;;;;5013402;28;20018;-73
2022/04/09 12:10:29;;;;;;;4.35;1.30;;;;;;;;;;5013221;28;20120;-74
2022/04/09 12:13:00;;;;;;;5.32;1.42;;;;;;;;;;5012171;28;20026;-75
2022/04/09 12:15:27;;;;;;;4.45;1.50;;;;;;;;;;5013228;28;20054;-76
2022/04/09 12:17:53;;;;;;;5.40;1.10;;;;;;;;;;5013134;28;20049;-73
2022/04/09 12:20:40;;;;;;;3.83;1.55;;;;;;;;;;5013106;28;20068;-75
2022/04/09 12:23:07;;;;;;;5.22;1.50;;;;;;;;;;5013578;28;20391;-74
2022/04/09 12:25:42;;;;;;;3.25;1.30;;;;;;;;;;5013223;28;20022;-75
2022/04/09 12:28:24;;;;;;;5.30;1.52;;;;;;;;;;5012988;28;20026;-73
2022/04/09 12:30:52;;;;;;;4.28;1.30;;;;;;;;;;5013003;28;20025;-73
2022/04/09 12:33:19;;;;;;;4.07;1.42;;;;;;;;;;5012746;28;20510;-72
2022/04/09 12:35:44;;;;;;;4.10;1.42;;;;;;;;;;5012932;28;20460;-73
2022/04/09 12:38:10;;;;;;;4.35;1.50;;;;;;;;;;5012806;28;20018;-73
2022/04/09 12:40:37;;;;;;;7.15;1.50;;;;;;;;;;5012978;28;20025;-73
2022/04/09 12:43:29;;;;;;;4.45;1.30;;;;;;;;;;5011797;28;20022;-75
2022/04/09 12:46:03;;;;;;;3.10;0.95;;;;;;;;;;5012941;28;20040;-74
2022/04/09 12:48:39;;;;;;;3.92;1.27;;;;;;;;;;5012665;28;20025;-74
2022/04/09 12:51:05;;;;;;;6.85;2.35;;;;;;;;;;5012630;28;20496;-72
2022/04/09 12:53:30;;;;;;;4.38;1.85;;;;;;;;;;5012745;28;20056;-77
2022/04/09 12:55:55;;;;;;;11.13;3.60;;;;;;;;;;5012909;28;20030;-73
2022/04/09 12:58:21;;;;;;;8.80;2.53;;;;;;;;;;5012279;28;20076;-72
2022/04/09 13:00:46;;;;;;;6.80;3.08;;;;;;;;;;5012838;28;20025;-71
2022/04/09 13:03:13;;;;;;;5.43;2.60;;;;;;;;;;5012932;28;20076;-73
2022/04/09 13:05:38;;;;;;;9.45;3.85;;;;;;;;;;5012298;28;20022;-75
2022/04/09 13:08:04;;;;;;;14.73;5.47;;;;;;;;;;5011716;28;20026;-73
2022/04/09 13:10:29;;;;;;;9.90;3.85;;;;;;;;;;5012281;28;20065;-75
2022/04/09 13:12:54;;;;;;;6.85;2.85;;;;;;;;;;5012346;28;20464;-73
2022/04/09 13:15:19;;;;;;;4.85;2.50;;;;;;;;;;5012112;28;20034;-72
2022/04/09 13:17:45;;;;;;;7.72;4.90;;;;;;;;;;5012321;28;20025;-74
2022/04/09 13:20:11;;;;;;;9.13;5.50;;;;;;;;;;5012462;28;20059;-73
2022/04/09 13:22:37;;;;;;;2.92;0.95;;;;;;;;;;5012227;28;20037;-74
2022/04/09 13:25:04;;;;;;;3.05;1.80;;;;;;;;;;5030739;28;20112;-75
2022/04/09 13:27:30;;;;;;;4.30;2.28;;;;;;;;;;5030733;28;20450;-74
2022/04/09 13:29:56;;;;;;;5.43;3.22;;;;;;;;;;5031412;28;20040;-73
2022/04/09 13:32:22;;;;;;;6.82;3.75;;;;;;;;;;5031615;28;20025;-75
2022/04/09 13:34:47;;;;;;;6.70;2.83;;;;;;;;;;5031537;28;20566;-74
2022/04/09 13:37:13;;;;;;;1.88;1.00;;;;;;;;;;5031449;28;20028;-75
2022/04/09 13:39:38;;;;;;;2.85;1.10;;;;;;;;;;5031332;28;20036;-73
2022/04/09 13:42:06;;;;;;;2.10;1.20;;;;;;;;;;5013894;28;20056;-73
2022/04/09 13:44:32;;;;;;;3.17;1.40;;;;;;;;;;5011599;28;20024;-75
2022/04/09 13:46:57;;;;;;;2.30;1.17;;;;;;;;;;5011513;28;20026;-74
2022/04/09 13:49:22;;;;;;;1.35;0.85;;;;;;;;;;5011871;28;20037;-73
2022/04/09 13:51:48;;;;;;;3.58;1.30;;;;;;;;;;5011800;28;20026;-73
2022/04/09 13:54:13;;;;;;;2.17;1.17;;;;;;;;;;5011778;28;20025;-74
2022/04/09 13:56:38;;;;;;;9.30;3.75;;;;;;;;;;5011159;28;20026;-72
2022/04/09 13:59:04;;;;;;;3.22;1.30;;;;;;;;;;5012089;28;20037;-74
2022/04/09 14:01:30;;;;;;;6.45;1.75;;;;;;;;;;5011483;28;20022;-76
2022/04/09 14:03:57;;;;;;;3.92;1.67;;;;;;;;;;5011387;28;20033;-74
2022/04/09 14:06:22;;;;;;;2.47;1.30;;;;;;;;;;5011249;28;20029;-73
2022/04/09 14:08:48;;;;;;;2.42;1.17;;;;;;;;;;5011315;28;20036;-75
2022/04/09 14:11:14;;;;;;;7.25;3.42;;;;;;;;;;5011339;28;20040;-73
2022/04/09 14:13:40;;;;;;;5.70;2.35;;;;;;;;;;5011511;28;20479;-73
2022/04/09 14:16:05;;;;;;;5.13;1.95;;;;;;;;;;5011019;28;20036;-76
2022/04/09 14:18:31;;;;;;;4.20;2.38;;;;;;;;;;5007252;28;20393;-77
2022/04/09 14:20:56;;;;;;;4.55;1.48;;;;;;;;;;5010922;28;20490;-75
2022/04/09 14:23:22;;;;;;;2.75;1.40;;;;;;;;;;5011127;28;20480;-73
2022/04/09 14:28:15;;;;;;;4.00;2.10;;;;;;;;;;5008934;28;20041;-75
2022/04/09 14:30:42;;;;;;;2.97;1.20;;;;;;;;;;5010686;28;20026;-73
2022/04/09 14:33:08;;;;;;;5.10;2.25;;;;;;;;;;5010785;28;20022;-72
2022/04/09 14:35:34;;;;;;;2.88;1.70;;;;;;;;;;5010706;28;20026;-74